Time;durP1;ratioP1;P1;durP2;ratioP2;P2;SDS_P1;SDS_P2;PMS_P1;PMS_P2;Temp;Humidity;BMP_temperature;BMP_pressure;BME280_temperature;BME280_humidity;BME280_pressure;Samples;Min_cycle;Max_cycle;Signal;HPM_P1;HPM_P2
2023/12/12 00:00:30;;;;;;;5.63;1.25;;;;;;;;;;5011256;28;20036;-87
2023/12/12 00:02:56;;;;;;;3.88;1.08;;;;;;;;;;4993557;28;20026;-87
2023/12/12 00:05:21;;;;;;;6.03;1.35;;;;;;;;;;4993304;28;20041;-87
2023/12/12 00:07:47;;;;;;;3.10;1.27;;;;;;;;;;5010531;28;20045;-87
2023/12/12 00:10:12;;;;;;;7.10;2.05;;;;;;;;;;5025292;28;20068;-87
2023/12/12 00:12:37;;;;;;;3.78;1.27;;;;;;;;;;5021578;28;20029;-87
2023/12/12 00:15:03;;;;;;;2.38;1.70;;;;;;;;;;5009760;28;20070;-86
2023/12/12 00:17:28;;;;;;;6.28;1.85;;;;;;;;;;5005861;28;20025;-87
2023/12/12 00:19:54;;;;;;;1.23;1.17;;;;;;;;;;5021263;28;20041;-87
2023/12/12 00:22:19;;;;;;;4.22;1.45;;;;;;;;;;4995875;28;20022;-87
2023/12/12 00:24:44;;;;;;;1.73;0.93;;;;;;;;;;5010412;28;20029;-87
2023/12/12 00:27:10;;;;;;;2.55;1.00;;;;;;;;;;5027896;28;20519;-87
2023/12/12 00:29:35;;;;;;;4.45;1.45;;;;;;;;;;5012455;28;20420;-87
2023/12/12 00:32:02;;;;;;;3.05;1.33;;;;;;;;;;5026281;28;20409;-87
2023/12/12 00:34:27;;;;;;;7.30;1.63;;;;;;;;;;5036793;28;20026;-87
2023/12/12 00:36:53;;;;;;;5.03;1.25;;;;;;;;;;5024519;28;20030;-87
2023/12/12 00:39:18;;;;;;;1.13;0.68;;;;;;;;;;5031250;28;20052;-88
2023/12/12 00:41:43;;;;;;;8.43;1.10;;;;;;;;;;5030826;28;20369;-87
2023/12/12 00:44:09;;;;;;;4.20;1.25;;;;;;;;;;5023500;28;20045;-88
2023/12/12 00:46:35;;;;;;;9.23;1.27;;;;;;;;;;5024585;28;20044;-87
2023/12/12 00:49:01;;;;;;;4.03;1.00;;;;;;;;;;5030336;28;20013;-86
2023/12/12 00:51:26;;;;;;;0.95;0.70;;;;;;;;;;5012608;28;20032;-87
2023/12/12 00:53:51;;;;;;;3.60;1.10;;;;;;;;;;5012555;28;20025;-88
2023/12/12 00:56:17;;;;;;;0.75;0.75;;;;;;;;;;5026890;28;20520;-86
2023/12/12 00:58:42;;;;;;;1.80;1.35;;;;;;;;;;5018035;28;20029;-89
2023/12/12 01:01:07;;;;;;;5.47;0.93;;;;;;;;;;5037844;28;20080;-89
2023/12/12 01:03:33;;;;;;;4.65;0.90;;;;;;;;;;5054632;28;20040;-89
2023/12/12 01:05:58;;;;;;;1.33;1.02;;;;;;;;;;5037599;28;20032;-89
2023/12/12 01:08:23;;;;;;;1.35;0.82;;;;;;;;;;5020872;28;20052;-87
2023/12/12 01:10:49;;;;;;;4.05;1.35;;;;;;;;;;5013983;28;20024;-87
2023/12/12 01:13:14;;;;;;;2.20;0.70;;;;;;;;;;5008884;28;20123;-87
2023/12/12 01:15:39;;;;;;;4.88;1.08;;;;;;;;;;5005026;28;20063;-87
2023/12/12 01:18:05;;;;;;;1.98;0.93;;;;;;;;;;5012922;28;20064;-87
2023/12/12 01:20:30;;;;;;;5.30;1.15;;;;;;;;;;5011958;28;20033;-87
2023/12/12 01:22:55;;;;;;;6.63;1.30;;;;;;;;;;5013418;28;20463;-88
2023/12/12 01:25:21;;;;;;;2.03;1.10;;;;;;;;;;5031042;28;20072;-87
2023/12/12 01:27:46;;;;;;;8.95;1.38;;;;;;;;;;5026917;28;20014;-88
2023/12/12 01:30:12;;;;;;;2.67;0.80;;;;;;;;;;5048682;28;20018;-88
2023/12/12 01:32:37;;;;;;;2.70;0.90;;;;;;;;;;5057569;22;20037;-80
2023/12/12 01:35:03;;;;;;;3.20;1.17;;;;;;;;;;5055785;28;20037;-80
2023/12/12 01:37:28;;;;;;;11.18;1.27;;;;;;;;;;5047591;28;20025;-79
2023/12/12 01:39:54;;;;;;;2.08;1.13;;;;;;;;;;5042796;28;20029;-79
2023/12/12 01:42:19;;;;;;;5.55;1.85;;;;;;;;;;5052890;28;20048;-79
2023/12/12 01:44:44;;;;;;;9.45;1.20;;;;;;;;;;5056083;28;20051;-79
2023/12/12 01:47:10;;;;;;;2.83;1.05;;;;;;;;;;5038506;28;20017;-79
2023/12/12 01:49:36;;;;;;;4.30;1.10;;;;;;;;;;5059717;28;20086;-79
2023/12/12 01:52:02;;;;;;;1.70;0.70;;;;;;;;;;5064248;28;20403;-79
2023/12/12 01:54:28;;;;;;;3.40;1.20;;;;;;;;;;5037766;28;20025;-79
2023/12/12 01:56:54;;;;;;;3.08;1.45;;;;;;;;;;5056920;28;20048;-78
2023/12/12 01:59:21;;;;;;;3.65;1.23;;;;;;;;;;5060065;28;20250;-79
2023/12/12 02:01:49;;;;;;;0.52;0.52;;;;;;;;;;5063772;28;20021;-79
2023/12/12 02:04:15;;;;;;;2.72;1.42;;;;;;;;;;5064760;28;20029;-79
2023/12/12 02:06:44;;;;;;;3.60;0.68;;;;;;;;;;5067841;28;20108;-78
2023/12/12 02:09:10;;;;;;;5.90;1.58;;;;;;;;;;5073097;28;20001;-78
2023/12/12 02:11:36;;;;;;;8.70;2.03;;;;;;;;;;5077975;28;20029;-78
2023/12/12 02:14:02;;;;;;;5.65;1.70;;;;;;;;;;5078484;28;20100;-78
2023/12/12 02:16:27;;;;;;;2.58;1.50;;;;;;;;;;5056530;28;20099;-78
2023/12/12 02:18:53;;;;;;;0.93;0.82;;;;;;;;;;5057667;28;20063;-79
2023/12/12 02:21:19;;;;;;;1.13;0.70;;;;;;;;;;5059016;28;20483;-80
2023/12/12 02:23:47;;;;;;;3.38;1.40;;;;;;;;;;5058961;28;20402;-79
2023/12/12 02:26:12;;;;;;;1.05;0.60;;;;;;;;;;5058281;28;20085;-79
2023/12/12 02:28:39;;;;;;;5.70;1.17;;;;;;;;;;5057234;28;20104;-80
2023/12/12 02:31:04;;;;;;;2.15;0.95;;;;;;;;;;5047303;28;20029;-79
2023/12/12 02:33:30;;;;;;;2.88;1.00;;;;;;;;;;5057517;28;20123;-79
2023/12/12 02:35:55;;;;;;;0.80;0.68;;;;;;;;;;5060087;28;20027;-79
2023/12/12 02:38:21;;;;;;;0.60;0.57;;;;;;;;;;5060078;28;20021;-80
2023/12/12 02:40:46;;;;;;;1.30;0.80;;;;;;;;;;5059823;28;20033;-80
2023/12/12 02:43:11;;;;;;;1.30;1.20;;;;;;;;;;5059906;28;20063;-80
2023/12/12 02:45:37;;;;;;;1.67;1.00;;;;;;;;;;5061184;28;20013;-79
2023/12/12 02:48:02;;;;;;;6.43;1.05;;;;;;;;;;5057629;28;20021;-79
2023/12/12 02:50:27;;;;;;;3.97;1.40;;;;;;;;;;5060849;28;20398;-79
2023/12/12 02:52:53;;;;;;;0.65;0.52;;;;;;;;;;5065967;28;20035;-79
2023/12/12 02:55:18;;;;;;;2.83;0.40;;;;;;;;;;5062726;28;20051;-78
2023/12/12 02:57:43;;;;;;;2.15;1.05;;;;;;;;;;5044587;28;20032;-79
2023/12/12 03:00:09;;;;;;;1.88;0.80;;;;;;;;;;5058611;28;20020;-79
2023/12/12 03:02:35;;;;;;;0.50;0.45;;;;;;;;;;5060202;28;20574;-79
2023/12/12 03:05:00;;;;;;;0.93;0.80;;;;;;;;;;5056532;28;20040;-78
2023/12/12 03:07:25;;;;;;;2.55;0.90;;;;;;;;;;5056613;28;20032;-78
2023/12/12 03:09:51;;;;;;;1.23;0.65;;;;;;;;;;5056517;28;20057;-78
2023/12/12 03:12:16;;;;;;;0.57;0.57;;;;;;;;;;5059387;28;20028;-79
2023/12/12 03:14:42;;;;;;;3.30;0.80;;;;;;;;;;5060031;28;20028;-78
2023/12/12 03:17:08;;;;;;;1.67;0.75;;;;;;;;;;5060264;28;20494;-79
2023/12/12 03:19:33;;;;;;;1.10;0.70;;;;;;;;;;5058617;28;20036;-78
2023/12/12 03:21:58;;;;;;;3.25;1.40;;;;;;;;;;5061669;28;20386;-79
2023/12/12 03:24:24;;;;;;;0.60;0.60;;;;;;;;;;5060858;28;20021;-79
2023/12/12 03:26:49;;;;;;;0.50;0.50;;;;;;;;;;5062107;28;20017;-79
2023/12/12 03:29:14;;;;;;;2.92;1.10;;;;;;;;;;5061587;28;20065;-79
2023/12/12 03:31:40;;;;;;;5.85;1.05;;;;;;;;;;5061142;28;20247;-79
2023/12/12 03:34:06;;;;;;;4.70;0.75;;;;;;;;;;5059876;28;20029;-78
2023/12/12 03:36:31;;;;;;;0.73;0.73;;;;;;;;;;5062093;28;20052;-79
2023/12/12 03:38:57;;;;;;;0.70;0.50;;;;;;;;;;5062339;28;20039;-79
2023/12/12 03:41:25;;;;;;;6.68;1.05;;;;;;;;;;5061828;28;20033;-79
2023/12/12 03:43:50;;;;;;;0.50;0.50;;;;;;;;;;5061512;28;20024;-79
2023/12/12 03:46:18;;;;;;;1.35;0.70;;;;;;;;;;5065195;28;20025;-79
2023/12/12 03:48:44;;;;;;;1.20;0.68;;;;;;;;;;5063081;28;20045;-79
2023/12/12 03:51:12;;;;;;;0.73;0.73;;;;;;;;;;5062615;28;20247;-79
2023/12/12 03:53:39;;;;;;;0.82;0.73;;;;;;;;;;5062437;28;20028;-79
2023/12/12 03:56:05;;;;;;;1.02;0.65;;;;;;;;;;5059048;28;20037;-79
2023/12/12 03:58:30;;;;;;;2.08;0.93;;;;;;;;;;5060065;28;20052;-79
2023/12/12 04:00:56;;;;;;;1.08;0.73;;;;;;;;;;5061495;28;20029;-79
2023/12/12 04:03:21;;;;;;;4.47;0.95;;;;;;;;;;5059906;28;20029;-78
2023/12/12 04:05:46;;;;;;;1.90;0.63;;;;;;;;;;5038495;28;20021;-79
2023/12/12 04:08:12;;;;;;;0.70;0.70;;;;;;;;;;5041028;28;20021;-79
2023/12/12 04:10:37;;;;;;;0.75;0.70;;;;;;;;;;5061056;28;20031;-79
2023/12/12 04:13:03;;;;;;;0.70;0.70;;;;;;;;;;5060996;28;20032;-79
2023/12/12 04:15:28;;;;;;;0.68;0.68;;;;;;;;;;5060883;28;20024;-79
2023/12/12 04:17:54;;;;;;;0.55;0.55;;;;;;;;;;5061491;28;20028;-79
2023/12/12 04:20:19;;;;;;;1.63;0.90;;;;;;;;;;5062022;28;20025;-79
2023/12/12 04:22:44;;;;;;;0.25;0.25;;;;;;;;;;5062164;28;20037;-79
2023/12/12 04:25:13;;;;;;;0.80;0.70;;;;;;;;;;5055090;28;20056;-79
2023/12/12 04:27:39;;;;;;;0.63;0.63;;;;;;;;;;5054910;28;20421;-79
2023/12/12 04:30:05;;;;;;;0.80;0.80;;;;;;;;;;5059803;28;20486;-79
2023/12/12 04:32:33;;;;;;;0.75;0.60;;;;;;;;;;5061425;28;20029;-79
2023/12/12 04:34:59;;;;;;;1.23;1.05;;;;;;;;;;5059398;28;20025;-79
2023/12/12 04:37:25;;;;;;;0.60;0.60;;;;;;;;;;5062197;28;20025;-79
2023/12/12 04:39:50;;;;;;;1.38;0.60;;;;;;;;;;5059276;28;20316;-79
2023/12/12 04:42:16;;;;;;;0.47;0.47;;;;;;;;;;5060428;28;20051;-79
2023/12/12 04:44:41;;;;;;;0.32;0.32;;;;;;;;;;5061671;28;20345;-79
2023/12/12 04:47:07;;;;;;;2.20;1.02;;;;;;;;;;5063169;28;20044;-79
2023/12/12 04:49:32;;;;;;;0.30;0.30;;;;;;;;;;5061960;28;20017;-79
2023/12/12 04:51:58;;;;;;;0.60;0.60;;;;;;;;;;5042136;28;20043;-79
2023/12/12 04:54:23;;;;;;;0.68;0.68;;;;;;;;;;5043680;28;20051;-78
2023/12/12 04:56:48;;;;;;;2.65;0.70;;;;;;;;;;5060424;28;20021;-78
2023/12/12 04:59:14;;;;;;;0.85;0.73;;;;;;;;;;5060140;28;20406;-78
2023/12/12 05:01:39;;;;;;;0.35;0.35;;;;;;;;;;5060969;28;20063;-79
2023/12/12 05:04:04;;;;;;;4.15;1.08;;;;;;;;;;5042455;28;20607;-78
2023/12/12 05:06:30;;;;;;;0.77;0.60;;;;;;;;;;5062081;28;20025;-78
2023/12/12 05:08:55;;;;;;;0.45;0.45;;;;;;;;;;5043498;28;20028;-78
2023/12/12 05:11:21;;;;;;;0.55;0.55;;;;;;;;;;5060516;28;20035;-78
2023/12/12 05:13:46;;;;;;;4.65;0.80;;;;;;;;;;5060514;28;20099;-78
2023/12/12 05:16:12;;;;;;;0.60;0.60;;;;;;;;;;5059769;28;20024;-78
2023/12/12 05:18:37;;;;;;;1.00;0.85;;;;;;;;;;5059489;28;20401;-79
2023/12/12 05:21:03;;;;;;;1.55;1.20;;;;;;;;;;5060602;28;20049;-78
2023/12/12 05:23:28;;;;;;;3.17;0.50;;;;;;;;;;5060612;28;20072;-78
2023/12/12 05:25:53;;;;;;;0.82;0.80;;;;;;;;;;5042322;28;20031;-78
2023/12/12 05:28:20;;;;;;;0.57;0.47;;;;;;;;;;5043636;28;20089;-78
2023/12/12 05:30:45;;;;;;;0.47;0.47;;;;;;;;;;5060603;28;20029;-78
2023/12/12 05:33:11;;;;;;;7.88;0.90;;;;;;;;;;5061189;28;20040;-78
2023/12/12 05:35:36;;;;;;;0.50;0.50;;;;;;;;;;5060097;28;20074;-78
2023/12/12 05:38:03;;;;;;;1.75;0.43;;;;;;;;;;5061172;28;20143;-78
2023/12/12 05:40:29;;;;;;;2.35;1.23;;;;;;;;;;5053169;28;20032;-79
2023/12/12 05:42:54;;;;;;;1.45;0.68;;;;;;;;;;5061553;28;20433;-79
2023/12/12 05:45:20;;;;;;;1.05;0.95;;;;;;;;;;5048520;28;20028;-78
2023/12/12 05:47:45;;;;;;;0.55;0.55;;;;;;;;;;5043229;28;20376;-79
2023/12/12 05:50:11;;;;;;;2.17;0.70;;;;;;;;;;5061050;28;20032;-78
2023/12/12 05:52:37;;;;;;;3.90;0.88;;;;;;;;;;5060414;28;20100;-78
2023/12/12 05:55:05;;;;;;;2.05;1.02;;;;;;;;;;5042827;28;20159;-78
2023/12/12 05:57:33;;;;;;;2.03;1.08;;;;;;;;;;5053366;28;20029;-78
2023/12/12 06:00:00;;;;;;;0.93;0.82;;;;;;;;;;5060664;28;20036;-78
2023/12/12 06:02:25;;;;;;;3.05;0.93;;;;;;;;;;5060688;28;20029;-78
2023/12/12 06:04:50;;;;;;;2.47;1.30;;;;;;;;;;5060569;28;20029;-78
2023/12/12 06:07:17;;;;;;;1.05;0.93;;;;;;;;;;5060843;28;20024;-78
2023/12/12 06:09:43;;;;;;;1.08;0.63;;;;;;;;;;5066466;28;20083;-78
2023/12/12 06:12:08;;;;;;;1.83;0.88;;;;;;;;;;5059008;28;20300;-78
2023/12/12 06:14:35;;;;;;;0.60;0.60;;;;;;;;;;5058837;28;20024;-79
2023/12/12 06:17:00;;;;;;;0.68;0.68;;;;;;;;;;5041822;28;20028;-78
2023/12/12 06:19:25;;;;;;;0.60;0.60;;;;;;;;;;5058936;28;20156;-78
2023/12/12 06:21:53;;;;;;;0.40;0.40;;;;;;;;;;5058807;28;20037;-78
2023/12/12 06:24:19;;;;;;;2.58;1.05;;;;;;;;;;5050619;28;20039;-79
2023/12/12 06:26:45;;;;;;;1.73;0.75;;;;;;;;;;5056120;28;20029;-78
2023/12/12 06:29:11;;;;;;;1.13;0.88;;;;;;;;;;5055725;28;20043;-78
2023/12/12 06:31:36;;;;;;;2.33;1.38;;;;;;;;;;5062229;28;20020;-79
2023/12/12 06:34:01;;;;;;;2.88;1.38;;;;;;;;;;5063647;28;20035;-78
2023/12/12 06:36:27;;;;;;;1.23;1.00;;;;;;;;;;5064206;28;20028;-79
2023/12/12 06:38:52;;;;;;;0.77;0.75;;;;;;;;;;5049121;28;20044;-78
2023/12/12 06:41:18;;;;;;;5.18;1.50;;;;;;;;;;5066904;28;20025;-79
2023/12/12 06:43:43;;;;;;;2.45;1.58;;;;;;;;;;5066944;28;20021;-78
2023/12/12 06:46:10;;;;;;;13.82;2.22;;;;;;;;;;5072909;28;20111;-78
2023/12/12 06:48:37;;;;;;;3.75;1.23;;;;;;;;;;5066627;28;20021;-78
2023/12/12 06:51:06;;;;;;;2.88;1.65;;;;;;;;;;5063728;28;20134;-79
2023/12/12 06:53:31;;;;;;;7.15;1.70;;;;;;;;;;5046942;28;20553;-78
2023/12/12 06:55:57;;;;;;;2.42;1.52;;;;;;;;;;5065503;28;20032;-78
2023/12/12 06:58:24;;;;;;;1.42;1.27;;;;;;;;;;5065179;28;20395;-81
2023/12/12 07:00:49;;;;;;;1.05;0.95;;;;;;;;;;5065111;28;20085;-78
2023/12/12 07:03:15;;;;;;;4.68;1.77;;;;;;;;;;5075191;28;20035;-79
2023/12/12 07:05:40;;;;;;;3.22;1.55;;;;;;;;;;5044922;28;20025;-79
2023/12/12 07:08:05;;;;;;;2.13;1.40;;;;;;;;;;5059341;28;20083;-80
2023/12/12 07:10:32;;;;;;;3.03;1.70;;;;;;;;;;5054150;28;20025;-79
2023/12/12 07:12:58;;;;;;;5.80;2.55;;;;;;;;;;5058488;28;20052;-79
2023/12/12 07:15:25;;;;;;;1.92;1.77;;;;;;;;;;5055156;28;20031;-79
2023/12/12 07:17:50;;;;;;;10.98;2.35;;;;;;;;;;5054308;28;20029;-79
2023/12/12 07:20:16;;;;;;;4.15;2.40;;;;;;;;;;5054464;28;20067;-79
2023/12/12 07:22:42;;;;;;;3.83;2.10;;;;;;;;;;5055935;28;20032;-80
2023/12/12 07:25:08;;;;;;;2.88;1.45;;;;;;;;;;5059292;28;20064;-80
2023/12/12 07:27:33;;;;;;;6.18;2.30;;;;;;;;;;5040523;28;20394;-83
2023/12/12 07:29:59;;;;;;;6.18;2.88;;;;;;;;;;5058494;28;20078;-83
2023/12/12 07:32:26;;;;;;;5.25;1.88;;;;;;;;;;5057270;28;20033;-79
2023/12/12 07:34:52;;;;;;;9.77;1.55;;;;;;;;;;5062122;28;20052;-78
2023/12/12 07:37:17;;;;;;;3.42;2.10;;;;;;;;;;5070934;28;20497;-78
2023/12/12 07:39:42;;;;;;;7.88;1.83;;;;;;;;;;5068786;28;20081;-77
2023/12/12 07:42:08;;;;;;;6.20;2.28;;;;;;;;;;5064927;28;20077;-81
2023/12/12 07:44:33;;;;;;;2.53;1.85;;;;;;;;;;5059209;28;20467;-80
2023/12/12 07:47:01;;;;;;;2.45;1.75;;;;;;;;;;5071004;22;20067;-88
2023/12/12 07:49:28;;;;;;;5.38;1.88;;;;;;;;;;5065999;28;20033;-89
2023/12/12 07:51:53;;;;;;;2.58;1.50;;;;;;;;;;5054552;28;20459;-88
2023/12/12 07:54:18;;;;;;;5.72;2.17;;;;;;;;;;5054001;28;20028;-89
2023/12/12 07:56:44;;;;;;;1.65;1.23;;;;;;;;;;5054479;28;20025;-89
2023/12/12 07:59:09;;;;;;;4.60;1.52;;;;;;;;;;5054312;28;20025;-87
2023/12/12 08:01:36;;;;;;;1.95;1.35;;;;;;;;;;5039139;28;20045;-87
2023/12/12 08:04:04;;;;;;;1.27;1.02;;;;;;;;;;5045626;28;20055;-86
2023/12/12 08:06:30;;;;;;;3.55;1.38;;;;;;;;;;5028369;28;20829;-86
2023/12/12 08:08:55;;;;;;;1.63;1.50;;;;;;;;;;5035505;28;20030;-85
2023/12/12 08:11:24;;;;;;;1.83;1.40;;;;;;;;;;5036366;28;20144;-87
2023/12/12 08:13:49;;;;;;;3.05;1.48;;;;;;;;;;5049987;28;20092;-87
2023/12/12 08:16:15;;;;;;;1.90;1.60;;;;;;;;;;5038545;28;20072;-86
2023/12/12 08:18:40;;;;;;;1.70;1.20;;;;;;;;;;5053333;28;20029;-86
2023/12/12 08:21:07;;;;;;;5.10;1.77;;;;;;;;;;5055120;28;20040;-87
2023/12/12 08:23:34;;;;;;;5.93;1.50;;;;;;;;;;5052495;28;20467;-87
2023/12/12 08:26:00;;;;;;;6.13;1.45;;;;;;;;;;5036788;28;20028;-85
2023/12/12 08:28:26;;;;;;;2.70;1.58;;;;;;;;;;5035539;28;20032;-85
2023/12/12 08:30:51;;;;;;;1.27;1.10;;;;;;;;;;5036128;28;20021;-86
2023/12/12 08:33:18;;;;;;;3.13;1.58;;;;;;;;;;5035204;28;20029;-86
2023/12/12 08:35:43;;;;;;;2.35;1.35;;;;;;;;;;5033619;28;20029;-86
2023/12/12 08:38:09;;;;;;;1.85;1.58;;;;;;;;;;5033093;28;20507;-88
2023/12/12 08:40:34;;;;;;;3.75;1.67;;;;;;;;;;5050210;28;20108;-87
2023/12/12 08:42:59;;;;;;;1.70;1.55;;;;;;;;;;5033140;28;20026;-87
2023/12/12 08:45:25;;;;;;;5.40;1.38;;;;;;;;;;5034258;28;20033;-87
2023/12/12 08:47:50;;;;;;;1.92;1.25;;;;;;;;;;5034837;28;20033;-87
2023/12/12 08:50:15;;;;;;;2.28;1.85;;;;;;;;;;5042596;28;20026;-87
2023/12/12 08:52:41;;;;;;;2.47;1.17;;;;;;;;;;5034352;28;20032;-88
2023/12/12 08:55:08;;;;;;;3.60;1.65;;;;;;;;;;5032790;28;20032;-87
2023/12/12 08:57:34;;;;;;;8.52;1.98;;;;;;;;;;5040994;28;20056;-87
2023/12/12 09:00:01;;;;;;;6.47;2.05;;;;;;;;;;5041210;28;20029;-87
2023/12/12 09:02:26;;;;;;;3.05;2.10;;;;;;;;;;5045568;28;20459;-86
2023/12/12 09:04:52;;;;;;;4.30;1.65;;;;;;;;;;5052256;28;20063;-87
2023/12/12 09:07:17;;;;;;;2.00;1.45;;;;;;;;;;5053022;28;20066;-90
2023/12/12 09:09:43;;;;;;;1.70;1.45;;;;;;;;;;5034057;28;20047;-89
2023/12/12 09:12:08;;;;;;;2.05;1.70;;;;;;;;;;5031899;28;20114;-90
2023/12/12 09:14:34;;;;;;;4.13;1.92;;;;;;;;;;5031403;28;20030;-90
2023/12/12 09:17:00;;;;;;;2.85;1.52;;;;;;;;;;5032292;28;20025;-90
2023/12/12 09:19:25;;;;;;;6.35;1.98;;;;;;;;;;5029831;28;20021;-89
2023/12/12 09:21:54;;;;;;;2.42;1.67;;;;;;;;;;5030347;28;20077;-89
2023/12/12 09:24:19;;;;;;;2.22;1.20;;;;;;;;;;5027266;28;20081;-88
2023/12/12 09:26:45;;;;;;;2.95;1.45;;;;;;;;;;5033190;28;20072;-89
2023/12/12 09:29:10;;;;;;;4.45;1.35;;;;;;;;;;5029444;28;20017;-90
2023/12/12 09:31:36;;;;;;;4.78;2.05;;;;;;;;;;5030894;28;20030;-88
2023/12/12 09:34:02;;;;;;;1.20;1.10;;;;;;;;;;5050078;28;20021;-88
2023/12/12 09:36:27;;;;;;;1.63;1.40;;;;;;;;;;5050770;28;20033;-88
2023/12/12 09:38:52;;;;;;;2.78;1.50;;;;;;;;;;5053504;28;20121;-88
2023/12/12 09:41:22;;;;;;;1.60;1.30;;;;;;;;;;5059559;28;20215;-88
2023/12/12 09:43:49;;;;;;;2.97;1.50;;;;;;;;;;5058571;28;20068;-89
2023/12/12 09:46:16;;;;;;;2.70;1.30;;;;;;;;;;5052877;28;20033;-88
2023/12/12 09:48:47;;;;;;;5.00;1.55;;;;;;;;;;5052848;28;20036;-87
2023/12/12 09:51:14;;;;;;;4.85;1.42;;;;;;;;;;5053372;28;20390;-88
2023/12/12 09:53:49;;;;;;;2.55;1.80;;;;;;;;;;5052304;28;20474;-88
2023/12/12 09:56:16;;;;;;;1.30;1.00;;;;;;;;;;5052773;28;20016;-88
2023/12/12 09:58:47;;;;;;;1.23;1.13;;;;;;;;;;5045719;28;20045;-89
2023/12/12 10:01:14;;;;;;;1.10;1.00;;;;;;;;;;5039996;28;20044;-88
2023/12/12 10:03:40;;;;;;;3.05;1.63;;;;;;;;;;5034378;28;20466;-88
2023/12/12 10:06:08;;;;;;;2.38;1.70;;;;;;;;;;5032426;28;20021;-88
2023/12/12 10:08:35;;;;;;;2.88;1.63;;;;;;;;;;5030987;28;20030;-90
2023/12/12 10:11:01;;;;;;;3.25;1.70;;;;;;;;;;5031401;28;20125;-88
2023/12/12 10:13:27;;;;;;;2.72;1.80;;;;;;;;;;5035075;28;20029;-89
2023/12/12 10:15:52;;;;;;;4.35;1.13;;;;;;;;;;5035760;28;20032;-87
2023/12/12 10:18:21;;;;;;;1.85;1.27;;;;;;;;;;5038063;28;20028;-88
2023/12/12 10:20:47;;;;;;;1.58;1.20;;;;;;;;;;5037282;28;20040;-87
2023/12/12 10:23:12;;;;;;;2.90;1.20;;;;;;;;;;5036086;28;20033;-88
2023/12/12 10:25:46;;;;;;;3.25;1.73;;;;;;;;;;5037481;28;20434;-87
2023/12/12 10:28:12;;;;;;;2.17;1.48;;;;;;;;;;5038605;28;20476;-88
2023/12/12 10:30:37;;;;;;;2.38;1.13;;;;;;;;;;5040231;28;20005;-86
2023/12/12 10:33:11;;;;;;;1.95;0.93;;;;;;;;;;5052899;28;20025;-89
2023/12/12 10:35:43;;;;;;;1.10;1.00;;;;;;;;;;5037519;28;20033;-88
2023/12/12 10:38:09;;;;;;;1.20;1.10;;;;;;;;;;5049094;28;20032;-88
2023/12/12 10:40:35;;;;;;;1.20;1.10;;;;;;;;;;5056029;28;20494;-87
2023/12/12 10:43:03;;;;;;;4.70;1.20;;;;;;;;;;5055182;28;20370;-86
2023/12/12 10:45:29;;;;;;;0.95;0.95;;;;;;;;;;5055280;28;20025;-88
2023/12/12 10:47:57;;;;;;;1.10;1.00;;;;;;;;;;5055639;28;20031;-88
2023/12/12 10:50:26;;;;;;;1.73;1.30;;;;;;;;;;5055382;28;20033;-88
2023/12/12 10:52:53;;;;;;;1.50;1.38;;;;;;;;;;5054704;28;20070;-88
2023/12/12 10:55:21;;;;;;;1.50;1.40;;;;;;;;;;5055672;28;20082;-87
2023/12/12 10:57:47;;;;;;;3.08;1.77;;;;;;;;;;5056283;28;20479;-87
2023/12/12 11:00:17;;;;;;;2.15;0.98;;;;;;;;;;5056234;28;20086;-87
2023/12/12 11:02:43;;;;;;;1.45;1.33;;;;;;;;;;5056269;28;20608;-88
2023/12/12 11:05:10;;;;;;;0.88;0.88;;;;;;;;;;5055542;28;20037;-86
2023/12/12 11:07:37;;;;;;;0.98;0.98;;;;;;;;;;5040372;28;20097;-87
2023/12/12 11:10:11;;;;;;;1.30;1.20;;;;;;;;;;5045642;28;20052;-86
2023/12/12 11:12:41;;;;;;;1.77;1.50;;;;;;;;;;5044218;28;20501;-86
2023/12/12 11:15:08;;;;;;;1.40;1.30;;;;;;;;;;5056857;28;20024;-86
2023/12/12 11:17:34;;;;;;;8.35;1.80;;;;;;;;;;5055762;28;20029;-87
2023/12/12 11:20:12;;;;;;;0.88;0.73;;;;;;;;;;5054662;28;20021;-87
2023/12/12 11:22:42;;;;;;;1.38;1.27;;;;;;;;;;5055228;28;20104;-87
2023/12/12 11:25:08;;;;;;;0.57;0.57;;;;;;;;;;5055495;28;20025;-88
2023/12/12 11:27:44;;;;;;;2.00;0.60;;;;;;;;;;5056905;28;20374;-87
2023/12/12 11:30:10;;;;;;;0.30;0.30;;;;;;;;;;5056221;28;20054;-86
2023/12/12 11:32:36;;;;;;;0.35;0.35;;;;;;;;;;5057124;28;20040;-86
2023/12/12 11:35:08;;;;;;;0.52;0.52;;;;;;;;;;5056465;28;20603;-86
2023/12/12 11:37:41;;;;;;;2.17;0.30;;;;;;;;;;5057152;28;20037;-87
2023/12/12 11:40:06;;;;;;;1.05;0.95;;;;;;;;;;5028620;28;20026;-86
2023/12/12 11:42:32;;;;;;;0.57;0.57;;;;;;;;;;5049918;28;20074;-87
2023/12/12 11:44:58;;;;;;;0.40;0.40;;;;;;;;;;5047077;28;20016;-87
2023/12/12 11:47:29;;;;;;;0.50;0.50;;;;;;;;;;5046831;28;20101;-86
2023/12/12 11:50:15;;;;;;;0.70;0.47;;;;;;;;;;5047027;28;20021;-87
2023/12/12 11:52:40;;;;;;;0.80;0.50;;;;;;;;;;5035866;28;20026;-86
2023/12/12 11:55:06;;;;;;;0.20;0.20;;;;;;;;;;5046754;28;20033;-86
2023/12/12 11:57:32;;;;;;;0.30;0.30;;;;;;;;;;5043460;28;20028;-86
2023/12/12 12:00:02;;;;;;;0.30;0.30;;;;;;;;;;5057562;28;20017;-85
2023/12/12 12:02:28;;;;;;;0.20;0.20;;;;;;;;;;5058307;28;20092;-88
2023/12/12 12:04:53;;;;;;;0.35;0.35;;;;;;;;;;5042140;28;20057;-89
2023/12/12 12:07:19;;;;;;;0.45;0.45;;;;;;;;;;5044477;28;20056;-87
2023/12/12 12:09:47;;;;;;;0.65;0.30;;;;;;;;;;5046814;28;20028;-87
2023/12/12 12:12:13;;;;;;;0.73;0.60;;;;;;;;;;5038826;28;20508;-85
2023/12/12 12:14:39;;;;;;;2.00;0.40;;;;;;;;;;5036242;28;20026;-85
2023/12/12 12:17:05;;;;;;;1.00;0.98;;;;;;;;;;5041852;28;20478;-86
2023/12/12 12:19:37;;;;;;;0.43;0.40;;;;;;;;;;5055887;28;20054;-85
2023/12/12 12:22:06;;;;;;;1.38;0.38;;;;;;;;;;5042176;28;20384;-86
2023/12/12 12:24:32;;;;;;;1.88;0.57;;;;;;;;;;5041511;28;20025;-84
2023/12/12 12:26:58;;;;;;;1.17;1.08;;;;;;;;;;5057559;28;20025;-87
2023/12/12 12:29:25;;;;;;;1.25;1.00;;;;;;;;;;5057145;28;20277;-86
2023/12/12 12:31:50;;;;;;;0.50;0.50;;;;;;;;;;5038255;28;20089;-88
2023/12/12 12:34:23;;;;;;;0.55;0.55;;;;;;;;;;5038711;28;20049;-86
2023/12/12 12:36:57;;;;;;;0.82;0.38;;;;;;;;;;5056238;28;20029;-87
2023/12/12 12:39:23;;;;;;;3.75;0.40;;;;;;;;;;5054422;28;20111;-87
2023/12/12 12:41:53;;;;;;;0.30;0.30;;;;;;;;;;5043232;28;20095;-85
2023/12/12 12:44:19;;;;;;;0.57;0.45;;;;;;;;;;5038318;28;20033;-84
2023/12/12 12:46:49;;;;;;;1.13;0.47;;;;;;;;;;5048810;28;20149;-88
2023/12/12 12:49:14;;;;;;;0.50;0.50;;;;;;;;;;5037199;28;20032;-86
2023/12/12 12:51:40;;;;;;;0.40;0.40;;;;;;;;;;5054667;28;20041;-86
2023/12/12 12:54:05;;;;;;;0.73;0.70;;;;;;;;;;5043213;28;20025;-85
2023/12/12 12:56:31;;;;;;;0.40;0.40;;;;;;;;;;5037957;28;20056;-85
2023/12/12 12:58:56;;;;;;;0.77;0.70;;;;;;;;;;5036634;28;20018;-87
2023/12/12 13:01:22;;;;;;;3.33;1.73;;;;;;;;;;5037597;28;20025;-87
2023/12/12 13:03:47;;;;;;;0.55;0.55;;;;;;;;;;5053905;28;20055;-87
2023/12/12 13:06:13;;;;;;;1.02;0.93;;;;;;;;;;5046464;28;20053;-88
2023/12/12 13:08:40;;;;;;;0.50;0.50;;;;;;;;;;5044213;28;20036;-88
2023/12/12 13:11:05;;;;;;;0.35;0.35;;;;;;;;;;5035877;28;20033;-88
2023/12/12 13:13:31;;;;;;;1.52;0.60;;;;;;;;;;5039206;28;20025;-86
2023/12/12 13:15:56;;;;;;;0.98;0.57;;;;;;;;;;5038039;28;20033;-86
2023/12/12 13:18:21;;;;;;;2.75;0.70;;;;;;;;;;5039561;28;20584;-87
2023/12/12 13:20:47;;;;;;;1.65;0.75;;;;;;;;;;5047417;28;20056;-86
2023/12/12 13:23:12;;;;;;;0.63;0.38;;;;;;;;;;5047096;28;20033;-89
2023/12/12 13:25:41;;;;;;;0.38;0.38;;;;;;;;;;5037575;28;20387;-87
2023/12/12 13:28:55;;;;;;;0.40;0.40;;;;;;;;;;5034329;28;20083;-89
2023/12/12 13:31:23;;;;;;;1.02;0.90;;;;;;;;;;5035414;28;20083;-89
2023/12/12 13:33:59;;;;;;;1.48;0.60;;;;;;;;;;5036213;28;20033;-88
2023/12/12 13:36:59;;;;;;;0.93;0.93;;;;;;;;;;5039730;28;20026;-88
2023/12/12 13:39:25;;;;;;;0.65;0.65;;;;;;;;;;5048695;28;20412;-86
2023/12/12 13:41:50;;;;;;;1.17;0.90;;;;;;;;;;5051159;28;20081;-86
2023/12/12 13:44:16;;;;;;;0.50;0.50;;;;;;;;;;5044652;28;20017;-87
2023/12/12 13:47:23;;;;;;;2.10;0.70;;;;;;;;;;5058993;28;20041;-84
2023/12/12 13:50:08;;;;;;;0.22;0.22;;;;;;;;;;5064218;28;20017;-84
2023/12/12 13:52:34;;;;;;;3.83;0.60;;;;;;;;;;5058620;28;20465;-87
2023/12/12 13:54:59;;;;;;;0.95;0.70;;;;;;;;;;5056633;28;20096;-87
2023/12/12 13:57:24;;;;;;;0.98;0.88;;;;;;;;;;5061110;28;20482;-87
2023/12/12 13:59:53;;;;;;;1.27;0.80;;;;;;;;;;5061228;28;20036;-82
2023/12/12 14:02:18;;;;;;;1.27;0.82;;;;;;;;;;5065873;28;20025;-88
2023/12/12 14:04:44;;;;;;;1.95;1.10;;;;;;;;;;5053567;28;20096;-87
2023/12/12 14:07:09;;;;;;;1.38;0.88;;;;;;;;;;5059615;28;20056;-89
2023/12/12 14:09:35;;;;;;;1.67;1.08;;;;;;;;;;5060533;28;20025;-88
2023/12/12 14:12:02;;;;;;;1.00;0.90;;;;;;;;;;5064641;28;20025;-84
2023/12/12 14:14:29;;;;;;;1.05;0.93;;;;;;;;;;5068468;28;20010;-82
2023/12/12 14:16:54;;;;;;;1.10;1.00;;;;;;;;;;5071368;28;20054;-86
2023/12/12 14:19:20;;;;;;;1.58;1.20;;;;;;;;;;5061681;28;20067;-88
2023/12/12 14:21:47;;;;;;;1.52;0.77;;;;;;;;;;5045885;28;20033;-88
2023/12/12 14:24:12;;;;;;;1.60;1.25;;;;;;;;;;5050948;28;20108;-87
2023/12/12 14:26:37;;;;;;;1.63;1.10;;;;;;;;;;5048513;28;20067;-88
2023/12/12 14:29:03;;;;;;;2.95;2.05;;;;;;;;;;5039112;28;20021;-86
2023/12/12 14:31:28;;;;;;;3.28;1.38;;;;;;;;;;5038685;28;20048;-87
2023/12/12 14:33:54;;;;;;;2.22;1.88;;;;;;;;;;5051238;28;20029;-84
2023/12/12 14:36:19;;;;;;;3.58;1.50;;;;;;;;;;5040162;28;20027;-87
2023/12/12 14:38:45;;;;;;;2.20;1.55;;;;;;;;;;5046033;28;20048;-86